Wever, Iowa
Current Conditions -  °F | °C
As of 4:15 AM on Wednesday 26 Nov 2014 (Local Time) from KFSW Reporting Station
Scattered Clouds Scattered Clouds  
Wind Chill: 22°   Ceiling: Unl
Heat Index: 28°   Visibility: 10mi
Dew Point: 25°   Wind: 6mph
Humidity: 86%   Direction: 140°SE
Pressure: 30.04"   Gusts: NA
Location:  40.71°N, 91.23°W
Report Text: KFSW 261015Z AUTO 14005KT 10SM SCT120 M02/M04 A3004 RMK AO2
Loading
Personal Weather Stations






























Interactive Weather Map New forecast layout! Learn more

10-Day Weather Forecast

Advertisements
Track Severe Weather on mobile